sensor_id;sensor_type;location;lat;lon;timestamp;pressure;altitude;pressure_sealevel;temperature;humidity
9249;BME280;4660;41.768;26.198;2023-10-19T00:00:46;101119.72;;;10.91;100.00
9249;BME280;4660;41.768;26.198;2023-10-19T00:03:19;101116.50;;;10.76;100.00
9249;BME280;4660;41.768;26.198;2023-10-19T00:05:45;101127.03;;;10.58;100.00
9249;BME280;4660;41.768;26.198;2023-10-19T00:08:12;101111.34;;;10.63;100.00
9249;BME280;4660;41.768;26.198;2023-10-19T00:10:39;101113.34;;;10.71;100.00
9249;BME280;4660;41.768;26.198;2023-10-19T00:13:05;101109.56;;;10.73;100.00
9249;BME280;4660;41.768;26.198;2023-10-19T00:15:32;101111.91;;;10.88;100.00
9249;BME280;4660;41.768;26.198;2023-10-19T00:18:00;101091.47;;;10.85;100.00
9249;BME280;4660;41.768;26.198;2023-10-19T00:20:55;101098.47;;;10.88;100.00
9249;BME280;4660;41.768;26.198;2023-10-19T00:23:23;101096.97;;;11.05;100.00
9249;BME280;4660;41.768;26.198;2023-10-19T00:26:01;101106.53;;;11.18;100.00
9249;BME280;4660;41.768;26.198;2023-10-19T00:28:33;101108.69;;;11.24;100.00
9249;BME280;4660;41.768;26.198;2023-10-19T00:31:01;101099.22;;;11.30;100.00
9249;BME280;4660;41.768;26.198;2023-10-19T00:33:30;101109.06;;;11.20;100.00
9249;BME280;4660;41.768;26.198;2023-10-19T00:36:00;101111.41;;;11.34;100.00
9249;BME280;4660;41.768;26.198;2023-10-19T00:38:31;101102.28;;;11.16;100.00
9249;BME280;4660;41.768;26.198;2023-10-19T00:41:08;101110.25;;;11.27;100.00
9249;BME280;4660;41.768;26.198;2023-10-19T00:43:38;101104.78;;;11.08;100.00
9249;BME280;4660;41.768;26.198;2023-10-19T00:46:07;101105.59;;;10.98;100.00
9249;BME280;4660;41.768;26.198;2023-10-19T00:49:02;101100.25;;;11.08;100.00
9249;BME280;4660;41.768;26.198;2023-10-19T00:51:37;101097.84;;;10.84;100.00
9249;BME280;4660;41.768;26.198;2023-10-19T00:54:34;101092.09;;;10.89;100.00
9249;BME280;4660;41.768;26.198;2023-10-19T00:57:02;101093.84;;;10.79;100.00
9249;BME280;4660;41.768;26.198;2023-10-19T00:59:40;101101.81;;;10.80;100.00
9249;BME280;4660;41.768;26.198;2023-10-19T01:02:18;101093.59;;;10.82;100.00
9249;BME280;4660;41.768;26.198;2023-10-19T01:04:54;101096.03;;;10.64;100.00
9249;BME280;4660;41.768;26.198;2023-10-19T01:07:27;101105.19;;;10.31;100.00
9249;BME280;4660;41.768;26.198;2023-10-19T01:10:00;101100.03;;;10.28;100.00
9249;BME280;4660;41.768;26.198;2023-10-19T01:12:29;101102.59;;;10.50;100.00
9249;BME280;4660;41.768;26.198;2023-10-19T01:17:40;101099.78;;;10.72;100.00
9249;BME280;4660;41.768;26.198;2023-10-19T01:20:11;101106.06;;;10.83;100.00
9249;BME280;4660;41.768;26.198;2023-10-19T01:22:48;101104.72;;;10.46;100.00
9249;BME280;4660;41.768;26.198;2023-10-19T01:25:15;101107.59;;;10.34;100.00
9249;BME280;4660;41.768;26.198;2023-10-19T01:27:50;101095.19;;;10.42;100.00
9249;BME280;4660;41.768;26.198;2023-10-19T01:30:20;101099.19;;;10.27;100.00
9249;BME280;4660;41.768;26.198;2023-10-19T01:32:46;101098.28;;;10.06;100.00
9249;BME280;4660;41.768;26.198;2023-10-19T01:35:11;101099.38;;;10.14;100.00
9249;BME280;4660;41.768;26.198;2023-10-19T01:37:37;101096.63;;;10.26;100.00
9249;BME280;4660;41.768;26.198;2023-10-19T01:40:03;101086.72;;;10.26;100.00
9249;BME280;4660;41.768;26.198;2023-10-19T01:42:30;101095.59;;;10.38;100.00
9249;BME280;4660;41.768;26.198;2023-10-19T01:44:56;101074.19;;;10.15;100.00
9249;BME280;4660;41.768;26.198;2023-10-19T01:47:21;101089.78;;;10.22;100.00
9249;BME280;4660;41.768;26.198;2023-10-19T01:49:47;101085.63;;;9.97;100.00
9249;BME280;4660;41.768;26.198;2023-10-19T01:52:17;101075.81;;;9.75;100.00
9249;BME280;4660;41.768;26.198;2023-10-19T01:54:43;101081.44;;;9.72;100.00
9249;BME280;4660;41.768;26.198;2023-10-19T01:57:08;101084.69;;;9.86;100.00
9249;BME280;4660;41.768;26.198;2023-10-19T01:59:35;101075.72;;;9.97;100.00
9249;BME280;4660;41.768;26.198;2023-10-19T02:02:00;101079.22;;;10.09;100.00
9249;BME280;4660;41.768;26.198;2023-10-19T02:04:27;101082.03;;;10.07;100.00
9249;BME280;4660;41.768;26.198;2023-10-19T02:06:53;101074.78;;;9.87;100.00
9249;BME280;4660;41.768;26.198;2023-10-19T02:09:19;101069.94;;;9.81;100.00
9249;BME280;4660;41.768;26.198;2023-10-19T02:11:59;101069.06;;;9.80;100.00
9249;BME280;4660;41.768;26.198;2023-10-19T02:14:27;101076.06;;;9.72;100.00
9249;BME280;4660;41.768;26.198;2023-10-19T02:17:00;101075.94;;;9.73;100.00
9249;BME280;4660;41.768;26.198;2023-10-19T02:19:27;101064.38;;;9.61;100.00
9249;BME280;4660;41.768;26.198;2023-10-19T02:22:00;101075.13;;;9.93;100.00
9249;BME280;4660;41.768;26.198;2023-10-19T02:24:28;101066.97;;;9.84;100.00
9249;BME280;4660;41.768;26.198;2023-10-19T02:26:56;101083.56;;;9.89;100.00
9249;BME280;4660;41.768;26.198;2023-10-19T02:29:22;101087.59;;;9.95;100.00
9249;BME280;4660;41.768;26.198;2023-10-19T02:31:48;101080.22;;;10.08;100.00
9249;BME280;4660;41.768;26.198;2023-10-19T02:34:15;101082.78;;;9.98;100.00
9249;BME280;4660;41.768;26.198;2023-10-19T02:36:42;101086.09;;;10.02;100.00
9249;BME280;4660;41.768;26.198;2023-10-19T02:39:10;101069.41;;;9.87;100.00
9249;BME280;4660;41.768;26.198;2023-10-19T02:41:40;101078.69;;;9.94;100.00
9249;BME280;4660;41.768;26.198;2023-10-19T02:44:18;101065.94;;;9.96;100.00
9249;BME280;4660;41.768;26.198;2023-10-19T02:46:45;101062.03;;;10.00;100.00
9249;BME280;4660;41.768;26.198;2023-10-19T02:49:12;101074.28;;;9.93;100.00
9249;BME280;4660;41.768;26.198;2023-10-19T02:51:40;101073.50;;;9.70;100.00
9249;BME280;4660;41.768;26.198;2023-10-19T02:54:10;101084.66;;;9.54;100.00
9249;BME280;4660;41.768;26.198;2023-10-19T02:56:43;101076.56;;;9.65;100.00
9249;BME280;4660;41.768;26.198;2023-10-19T02:59:12;101081.19;;;9.75;100.00
9249;BME280;4660;41.768;26.198;2023-10-19T03:01:44;101080.25;;;9.64;100.00
9249;BME280;4660;41.768;26.198;2023-10-19T03:04:10;101072.63;;;9.81;100.00
9249;BME280;4660;41.768;26.198;2023-10-19T03:06:38;101072.56;;;9.92;100.00
9249;BME280;4660;41.768;26.198;2023-10-19T03:09:06;101068.00;;;9.72;100.00
9249;BME280;4660;41.768;26.198;2023-10-19T03:11:42;101074.88;;;9.64;100.00
9249;BME280;4660;41.768;26.198;2023-10-19T03:14:10;101080.81;;;9.68;100.00
9249;BME280;4660;41.768;26.198;2023-10-19T03:16:37;101067.38;;;9.36;100.00
9249;BME280;4660;41.768;26.198;2023-10-19T03:19:03;101066.75;;;9.44;100.00
9249;BME280;4660;41.768;26.198;2023-10-19T03:21:30;101080.78;;;9.36;100.00
9249;BME280;4660;41.768;26.198;2023-10-19T03:23:59;101061.31;;;9.00;100.00
9249;BME280;4660;41.768;26.198;2023-10-19T03:26:38;101068.72;;;8.74;100.00
9249;BME280;4660;41.768;26.198;2023-10-19T03:29:05;101070.09;;;8.80;100.00
9249;BME280;4660;41.768;26.198;2023-10-19T03:31:38;101081.28;;;8.74;100.00
9249;BME280;4660;41.768;26.198;2023-10-19T03:34:12;101070.78;;;8.60;100.00
9249;BME280;4660;41.768;26.198;2023-10-19T03:36:39;101070.38;;;8.42;100.00
9249;BME280;4660;41.768;26.198;2023-10-19T03:39:04;101074.16;;;8.39;100.00
9249;BME280;4660;41.768;26.198;2023-10-19T03:41:43;101078.91;;;8.12;100.00
9249;BME280;4660;41.768;26.198;2023-10-19T03:44:13;101078.84;;;7.89;100.00
9249;BME280;4660;41.768;26.198;2023-10-19T03:46:48;101070.25;;;7.73;100.00
9249;BME280;4660;41.768;26.198;2023-10-19T03:49:40;101081.91;;;7.96;100.00
9249;BME280;4660;41.768;26.198;2023-10-19T03:52:07;101061.66;;;7.92;100.00
9249;BME280;4660;41.768;26.198;2023-10-19T03:54:37;101063.00;;;7.86;100.00
9249;BME280;4660;41.768;26.198;2023-10-19T03:57:07;101072.34;;;7.81;100.00
9249;BME280;4660;41.768;26.198;2023-10-19T03:59:40;101069.88;;;7.78;100.00
9249;BME280;4660;41.768;26.198;2023-10-19T04:02:07;101077.16;;;7.64;100.00
9249;BME280;4660;41.768;26.198;2023-10-19T04:04:42;101065.09;;;7.94;100.00
9249;BME280;4660;41.768;26.198;2023-10-19T04:07:14;101058.13;;;7.91;100.00
9249;BME280;4660;41.768;26.198;2023-10-19T04:09:54;101067.81;;;8.05;100.00
9249;BME280;4660;41.768;26.198;2023-10-19T04:12:33;101068.84;;;8.26;100.00
9249;BME280;4660;41.768;26.198;2023-10-19T04:15:02;101071.84;;;8.11;100.00
9249;BME280;4660;41.768;26.198;2023-10-19T04:17:47;101075.59;;;7.97;100.00
9249;BME280;4660;41.768;26.198;2023-10-19T04:20:16;101059.28;;;7.76;100.00
9249;BME280;4660;41.768;26.198;2023-10-19T04:22:41;101076.50;;;7.61;100.00
9249;BME280;4660;41.768;26.198;2023-10-19T04:25:07;101065.97;;;7.70;100.00
9249;BME280;4660;41.768;26.198;2023-10-19T04:27:33;101066.25;;;7.55;100.00
9249;BME280;4660;41.768;26.198;2023-10-19T04:30:02;101072.94;;;7.73;100.00
9249;BME280;4660;41.768;26.198;2023-10-19T04:32:28;101032.06;;;7.34;100.00
9249;BME280;4660;41.768;26.198;2023-10-19T04:34:53;101056.69;;;7.87;100.00
9249;BME280;4660;41.768;26.198;2023-10-19T04:37:19;101081.28;;;7.92;100.00
9249;BME280;4660;41.768;26.198;2023-10-19T04:39:45;101059.44;;;7.86;100.00
9249;BME280;4660;41.768;26.198;2023-10-19T04:42:11;101061.34;;;7.96;100.00
9249;BME280;4660;41.768;26.198;2023-10-19T04:44:37;101064.66;;;8.11;100.00
9249;BME280;4660;41.768;26.198;2023-10-19T04:47:03;101072.13;;;7.84;100.00
9249;BME280;4660;41.768;26.198;2023-10-19T04:49:29;101082.25;;;7.91;100.00
9249;BME280;4660;41.768;26.198;2023-10-19T04:51:55;101080.81;;;7.98;100.00
9249;BME280;4660;41.768;26.198;2023-10-19T04:54:20;101081.59;;;8.12;100.00
9249;BME280;4660;41.768;26.198;2023-10-19T04:56:46;101096.38;;;8.28;100.00
9249;BME280;4660;41.768;26.198;2023-10-19T04:59:11;101082.25;;;8.26;100.00
9249;BME280;4660;41.768;26.198;2023-10-19T05:01:37;101096.97;;;8.45;100.00
9249;BME280;4660;41.768;26.198;2023-10-19T05:04:03;101100.72;;;8.42;100.00
9249;BME280;4660;41.768;26.198;2023-10-19T05:06:29;101106.00;;;8.20;100.00
9249;BME280;4660;41.768;26.198;2023-10-19T05:08:55;101103.28;;;8.09;100.00
9249;BME280;4660;41.768;26.198;2023-10-19T05:11:22;101107.16;;;8.05;100.00
9249;BME280;4660;41.768;26.198;2023-10-19T05:13:49;101115.63;;;7.87;100.00
9249;BME280;4660;41.768;26.198;2023-10-19T05:16:15;101093.94;;;7.90;100.00
9249;BME280;4660;41.768;26.198;2023-10-19T05:18:41;101106.00;;;8.20;100.00
9249;BME280;4660;41.768;26.198;2023-10-19T05:21:07;101107.47;;;8.24;100.00
9249;BME280;4660;41.768;26.198;2023-10-19T05:23:32;101111.34;;;8.20;100.00
9249;BME280;4660;41.768;26.198;2023-10-19T05:26:04;101107.78;;;8.08;100.00
9249;BME280;4660;41.768;26.198;2023-10-19T05:28:32;101104.63;;;8.14;100.00
9249;BME280;4660;41.768;26.198;2023-10-19T05:30:57;101099.25;;;8.14;100.00
9249;BME280;4660;41.768;26.198;2023-10-19T05:33:26;101104.91;;;7.87;100.00
9249;BME280;4660;41.768;26.198;2023-10-19T05:35:52;101115.81;;;7.84;100.00
9249;BME280;4660;41.768;26.198;2023-10-19T05:38:18;101124.13;;;7.92;100.00
9249;BME280;4660;41.768;26.198;2023-10-19T05:40:48;101106.53;;;8.01;100.00
9249;BME280;4660;41.768;26.198;2023-10-19T05:43:15;101128.59;;;8.05;100.00
9249;BME280;4660;41.768;26.198;2023-10-19T05:45:41;101122.03;;;8.09;100.00
9249;BME280;4660;41.768;26.198;2023-10-19T05:48:07;101133.19;;;8.26;100.00
9249;BME280;4660;41.768;26.198;2023-10-19T05:50:34;101111.94;;;8.36;100.00
9249;BME280;4660;41.768;26.198;2023-10-19T05:52:59;101137.72;;;8.61;100.00
9249;BME280;4660;41.768;26.198;2023-10-19T05:55:26;101119.88;;;8.49;100.00
9249;BME280;4660;41.768;26.198;2023-10-19T05:57:51;101134.03;;;8.51;100.00
9249;BME280;4660;41.768;26.198;2023-10-19T06:00:17;101129.09;;;8.91;100.00
9249;BME280;4660;41.768;26.198;2023-10-19T06:02:48;101125.22;;;9.18;100.00
9249;BME280;4660;41.768;26.198;2023-10-19T06:05:15;101127.19;;;9.16;100.00
9249;BME280;4660;41.768;26.198;2023-10-19T06:07:43;101117.41;;;9.26;100.00
9249;BME280;4660;41.768;26.198;2023-10-19T06:10:11;101116.78;;;9.45;100.00
9249;BME280;4660;41.768;26.198;2023-10-19T06:12:45;101122.50;;;9.51;100.00
9249;BME280;4660;41.768;26.198;2023-10-19T06:15:15;101104.00;;;9.15;100.00
9249;BME280;4660;41.768;26.198;2023-10-19T06:17:41;101097.84;;;9.35;100.00
9249;BME280;4660;41.768;26.198;2023-10-19T06:20:09;101118.13;;;9.50;100.00
9249;BME280;4660;41.768;26.198;2023-10-19T06:22:53;101118.03;;;9.84;100.00
9249;BME280;4660;41.768;26.198;2023-10-19T06:25:20;101111.06;;;10.25;100.00
9249;BME280;4660;41.768;26.198;2023-10-19T06:27:49;101112.94;;;10.45;100.00
9249;BME280;4660;41.768;26.198;2023-10-19T06:30:16;101095.13;;;10.54;100.00
9249;BME280;4660;41.768;26.198;2023-10-19T06:32:58;101107.88;;;10.72;100.00
9249;BME280;4660;41.768;26.198;2023-10-19T06:35:28;101108.13;;;11.00;100.00
9249;BME280;4660;41.768;26.198;2023-10-19T06:37:55;101107.50;;;11.17;100.00
9249;BME280;4660;41.768;26.198;2023-10-19T06:40:21;101124.13;;;11.22;100.00
9249;BME280;4660;41.768;26.198;2023-10-19T06:42:48;101103.88;;;10.97;100.00
9249;BME280;4660;41.768;26.198;2023-10-19T06:45:16;101118.91;;;11.00;100.00
9249;BME280;4660;41.768;26.198;2023-10-19T06:47:43;101131.75;;;10.66;100.00
9249;BME280;4660;41.768;26.198;2023-10-19T06:50:19;101120.78;;;10.79;100.00
9249;BME280;4660;41.768;26.198;2023-10-19T06:52:45;101134.03;;;10.70;100.00
9249;BME280;4660;41.768;26.198;2023-10-19T06:55:16;101129.84;;;10.78;100.00
9249;BME280;4660;41.768;26.198;2023-10-19T06:57:51;101129.06;;;10.87;100.00
9249;BME280;4660;41.768;26.198;2023-10-19T07:00:22;101124.84;;;10.94;100.00
9249;BME280;4660;41.768;26.198;2023-10-19T07:02:52;101118.97;;;10.79;100.00
9249;BME280;4660;41.768;26.198;2023-10-19T07:05:19;101121.31;;;10.93;100.00
9249;BME280;4660;41.768;26.198;2023-10-19T07:07:51;101127.84;;;11.31;100.00
9249;BME280;4660;41.768;26.198;2023-10-19T07:10:18;101102.59;;;11.22;100.00
9249;BME280;4660;41.768;26.198;2023-10-19T07:13:05;101100.06;;;11.00;100.00
9249;BME280;4660;41.768;26.198;2023-10-19T07:15:52;101130.19;;;11.55;100.00
9249;BME280;4660;41.768;26.198;2023-10-19T07:18:17;101110.06;;;11.59;100.00
9249;BME280;4660;41.768;26.198;2023-10-19T07:20:43;101126.94;;;11.61;100.00
9249;BME280;4660;41.768;26.198;2023-10-19T07:23:13;101121.44;;;11.72;100.00
9249;BME280;4660;41.768;26.198;2023-10-19T07:25:48;101112.94;;;11.77;100.00
9249;BME280;4660;41.768;26.198;2023-10-19T07:28:18;101124.06;;;11.93;100.00
9249;BME280;4660;41.768;26.198;2023-10-19T07:30:45;101120.94;;;11.98;100.00
9249;BME280;4660;41.768;26.198;2023-10-19T07:33:12;101108.72;;;11.84;100.00
9249;BME280;4660;41.768;26.198;2023-10-19T07:35:49;101099.25;;;12.09;100.00
9249;BME280;4660;41.768;26.198;2023-10-19T07:38:24;101111.31;;;12.15;100.00
9249;BME280;4660;41.768;26.198;2023-10-19T07:40:51;101115.41;;;12.19;100.00
9249;BME280;4660;41.768;26.198;2023-10-19T07:43:19;101109.59;;;12.13;100.00
9249;BME280;4660;41.768;26.198;2023-10-19T07:45:48;101107.72;;;12.14;100.00
9249;BME280;4660;41.768;26.198;2023-10-19T07:48:14;101105.88;;;12.34;100.00
9249;BME280;4660;41.768;26.198;2023-10-19T07:50:40;101102.19;;;12.45;100.00
9249;BME280;4660;41.768;26.198;2023-10-19T07:53:06;101091.69;;;12.42;100.00
9249;BME280;4660;41.768;26.198;2023-10-19T07:55:32;101098.72;;;12.81;100.00
9249;BME280;4660;41.768;26.198;2023-10-19T07:57:57;101104.66;;;12.85;100.00
9249;BME280;4660;41.768;26.198;2023-10-19T08:00:25;101108.09;;;12.87;100.00
9249;BME280;4660;41.768;26.198;2023-10-19T08:02:52;101112.09;;;13.20;100.00
9249;BME280;4660;41.768;26.198;2023-10-19T08:05:19;101097.34;;;13.42;100.00
9249;BME280;4660;41.768;26.198;2023-10-19T08:07:45;101100.00;;;13.24;100.00
9249;BME280;4660;41.768;26.198;2023-10-19T08:10:18;101100.22;;;13.40;100.00
9249;BME280;4660;41.768;26.198;2023-10-19T08:12:46;101085.44;;;13.62;100.00
9249;BME280;4660;41.768;26.198;2023-10-19T08:15:16;101088.84;;;13.82;100.00
9249;BME280;4660;41.768;26.198;2023-10-19T08:17:44;101091.03;;;13.96;100.00
9249;BME280;4660;41.768;26.198;2023-10-19T08:20:12;101084.69;;;14.05;100.00
9249;BME280;4660;41.768;26.198;2023-10-19T08:22:45;101079.28;;;14.23;100.00
9249;BME280;4660;41.768;26.198;2023-10-19T08:25:13;101065.66;;;14.51;100.00
9249;BME280;4660;41.768;26.198;2023-10-19T08:27:43;101079.81;;;14.71;100.00
9249;BME280;4660;41.768;26.198;2023-10-19T08:30:18;101066.88;;;14.82;100.00
9249;BME280;4660;41.768;26.198;2023-10-19T08:32:47;101083.31;;;14.89;100.00
9249;BME280;4660;41.768;26.198;2023-10-19T08:35:20;101096.16;;;14.79;100.00
9249;BME280;4660;41.768;26.198;2023-10-19T08:37:50;101065.88;;;14.57;100.00
9249;BME280;4660;41.768;26.198;2023-10-19T08:40:16;101069.44;;;14.92;100.00
9249;BME280;4660;41.768;26.198;2023-10-19T08:42:44;101078.25;;;15.28;100.00
9249;BME280;4660;41.768;26.198;2023-10-19T08:45:12;101078.19;;;15.54;100.00
9249;BME280;4660;41.768;26.198;2023-10-19T08:47:50;101082.28;;;15.58;100.00
9249;BME280;4660;41.768;26.198;2023-10-19T08:50:20;101082.34;;;15.75;100.00
9249;BME280;4660;41.768;26.198;2023-10-19T08:52:55;101084.06;;;15.84;100.00
9249;BME280;4660;41.768;26.198;2023-10-19T08:55:22;101074.25;;;16.07;100.00
9249;BME280;4660;41.768;26.198;2023-10-19T08:57:49;101075.63;;;16.19;100.00
9249;BME280;4660;41.768;26.198;2023-10-19T09:00:16;101061.38;;;16.26;100.00
9249;BME280;4660;41.768;26.198;2023-10-19T09:02:48;101064.25;;;16.40;100.00
9249;BME280;4660;41.768;26.198;2023-10-19T09:05:14;101059.97;;;16.62;100.00
9249;BME280;4660;41.768;26.198;2023-10-19T09:07:51;101050.81;;;16.63;100.00
9249;BME280;4660;41.768;26.198;2023-10-19T09:10:27;101034.19;;;16.74;100.00
9249;BME280;4660;41.768;26.198;2023-10-19T09:13:03;101046.53;;;16.93;100.00
9249;BME280;4660;41.768;26.198;2023-10-19T09:15:30;101017.19;;;16.81;100.00
9249;BME280;4660;41.768;26.198;2023-10-19T09:18:01;101028.38;;;16.77;100.00
9249;BME280;4660;41.768;26.198;2023-10-19T09:20:37;101028.22;;;16.87;100.00
9249;BME280;4660;41.768;26.198;2023-10-19T09:23:03;100995.25;;;16.90;100.00
9249;BME280;4660;41.768;26.198;2023-10-19T09:25:29;101031.59;;;17.28;100.00
9249;BME280;4660;41.768;26.198;2023-10-19T09:27:54;101007.50;;;17.25;100.00
9249;BME280;4660;41.768;26.198;2023-10-19T09:30:21;101007.72;;;17.70;100.00
9249;BME280;4660;41.768;26.198;2023-10-19T09:32:48;101021.28;;;18.24;100.00
9249;BME280;4660;41.768;26.198;2023-10-19T09:35:15;101014.47;;;18.42;100.00
9249;BME280;4660;41.768;26.198;2023-10-19T09:37:44;101000.28;;;18.32;100.00
9249;BME280;4660;41.768;26.198;2023-10-19T09:40:10;100994.75;;;18.40;100.00
9249;BME280;4660;41.768;26.198;2023-10-19T09:42:43;100990.53;;;18.38;100.00
9249;BME280;4660;41.768;26.198;2023-10-19T09:45:17;101000.09;;;18.49;100.00
9249;BME280;4660;41.768;26.198;2023-10-19T09:47:49;100986.63;;;18.70;100.00
9249;BME280;4660;41.768;26.198;2023-10-19T09:50:15;100988.47;;;18.99;100.00
9249;BME280;4660;41.768;26.198;2023-10-19T09:52:41;100983.84;;;19.14;100.00
9249;BME280;4660;41.768;26.198;2023-10-19T09:55:18;100977.50;;;19.43;100.00
9249;BME280;4660;41.768;26.198;2023-10-19T10:00:28;100987.66;;;19.71;100.00
9249;BME280;4660;41.768;26.198;2023-10-19T10:02:57;100975.66;;;19.65;100.00
9249;BME280;4660;41.768;26.198;2023-10-19T10:10:45;100967.69;;;20.13;100.00
9249;BME280;4660;41.768;26.198;2023-10-19T10:13:40;100957.13;;;20.31;100.00
9249;BME280;4660;41.768;26.198;2023-10-19T10:16:06;100957.97;;;20.32;100.00
9249;BME280;4660;41.768;26.198;2023-10-19T10:18:33;100918.19;;;20.51;100.00
9249;BME280;4660;41.768;26.198;2023-10-19T10:21:23;100933.50;;;20.45;100.00
9249;BME280;4660;41.768;26.198;2023-10-19T10:23:56;100947.50;;;20.42;100.00
9249;BME280;4660;41.768;26.198;2023-10-19T10:26:24;100906.72;;;19.85;100.00
9249;BME280;4660;41.768;26.198;2023-10-19T10:31:41;100925.38;;;20.02;100.00
9249;BME280;4660;41.768;26.198;2023-10-19T10:34:09;100908.38;;;19.79;100.00
9249;BME280;4660;41.768;26.198;2023-10-19T10:36:59;100907.28;;;19.73;100.00
9249;BME280;4660;41.768;26.198;2023-10-19T10:39:28;100900.19;;;19.79;100.00
9249;BME280;4660;41.768;26.198;2023-10-19T10:42:02;100897.28;;;20.09;100.00
9249;BME280;4660;41.768;26.198;2023-10-19T10:44:39;100892.63;;;20.37;100.00
9249;BME280;4660;41.768;26.198;2023-10-19T10:47:21;100865.28;;;20.72;100.00
9249;BME280;4660;41.768;26.198;2023-10-19T10:49:58;100874.59;;;20.91;100.00
9249;BME280;4660;41.768;26.198;2023-10-19T10:52:36;100895.13;;;21.28;100.00
9249;BME280;4660;41.768;26.198;2023-10-19T10:55:08;100823.25;;;20.93;100.00
9249;BME280;4660;41.768;26.198;2023-10-19T10:57:36;100840.88;;;20.70;100.00
9249;BME280;4660;41.768;26.198;2023-10-19T11:00:11;100809.44;;;20.46;100.00
9249;BME280;4660;41.768;26.198;2023-10-19T11:03:06;100840.03;;;20.70;100.00
9249;BME280;4660;41.768;26.198;2023-10-19T11:05:36;100862.78;;;20.83;100.00
9249;BME280;4660;41.768;26.198;2023-10-19T11:08:07;100833.28;;;20.66;97.87
9249;BME280;4660;41.768;26.198;2023-10-19T11:10:40;100837.56;;;20.81;96.69
9249;BME280;4660;41.768;26.198;2023-10-19T11:13:10;100852.56;;;21.19;95.97
9249;BME280;4660;41.768;26.198;2023-10-19T11:15:38;100852.81;;;21.24;95.92
9249;BME280;4660;41.768;26.198;2023-10-19T11:18:06;100840.22;;;21.36;93.26
9249;BME280;4660;41.768;26.198;2023-10-19T11:20:34;100828.22;;;21.30;92.54
9249;BME280;4660;41.768;26.198;2023-10-19T11:23:01;100834.13;;;21.47;91.62
9249;BME280;4660;41.768;26.198;2023-10-19T11:25:35;100844.88;;;21.68;91.60
9249;BME280;4660;41.768;26.198;2023-10-19T11:28:16;100842.94;;;21.49;91.40
9249;BME280;4660;41.768;26.198;2023-10-19T11:30:42;100838.13;;;21.51;92.33
9249;BME280;4660;41.768;26.198;2023-10-19T11:33:07;100838.53;;;21.48;91.12
9249;BME280;4660;41.768;26.198;2023-10-19T11:35:33;100827.59;;;21.61;91.93
9249;BME280;4660;41.768;26.198;2023-10-19T11:38:03;100827.19;;;21.51;91.54
9249;BME280;4660;41.768;26.198;2023-10-19T11:40:29;100806.53;;;21.55;91.37
9249;BME280;4660;41.768;26.198;2023-10-19T11:42:55;100825.91;;;21.87;91.33
9249;BME280;4660;41.768;26.198;2023-10-19T11:45:27;100822.50;;;21.85;91.73
9249;BME280;4660;41.768;26.198;2023-10-19T11:47:54;100815.56;;;22.09;91.43
9249;BME280;4660;41.768;26.198;2023-10-19T11:50:20;100818.28;;;22.22;89.25
9249;BME280;4660;41.768;26.198;2023-10-19T11:52:46;100811.00;;;22.47;88.50
9249;BME280;4660;41.768;26.198;2023-10-19T11:55:12;100802.53;;;22.49;86.65
9249;BME280;4660;41.768;26.198;2023-10-19T11:57:44;100768.44;;;22.38;86.84
9249;BME280;4660;41.768;26.198;2023-10-19T12:00:11;100798.34;;;22.46;86.48
9249;BME280;4660;41.768;26.198;2023-10-19T12:02:39;100799.16;;;22.53;86.81
9249;BME280;4660;41.768;26.198;2023-10-19T12:05:07;100807.56;;;22.65;87.00
9249;BME280;4660;41.768;26.198;2023-10-19T12:07:37;100787.34;;;22.53;85.80
9249;BME280;4660;41.768;26.198;2023-10-19T12:10:04;100788.97;;;22.67;85.52
9249;BME280;4660;41.768;26.198;2023-10-19T12:12:30;100802.47;;;22.69;85.81
9249;BME280;4660;41.768;26.198;2023-10-19T12:14:56;100793.97;;;22.77;86.40
9249;BME280;4660;41.768;26.198;2023-10-19T12:17:23;100780.59;;;22.56;86.21
9249;BME280;4660;41.768;26.198;2023-10-19T12:19:52;100787.97;;;22.55;85.75
9249;BME280;4660;41.768;26.198;2023-10-19T12:22:18;100669.53;;;21.95;83.79
9249;BME280;4660;41.768;26.198;2023-10-19T12:24:46;100790.97;;;22.85;82.89
9249;BME280;4660;41.768;26.198;2023-10-19T12:27:12;100771.94;;;22.97;83.62
9249;BME280;4660;41.768;26.198;2023-10-19T12:29:39;100789.53;;;23.14;82.53
9249;BME280;4660;41.768;26.198;2023-10-19T12:32:05;100771.97;;;23.22;82.56
9249;BME280;4660;41.768;26.198;2023-10-19T12:34:31;100761.28;;;23.07;82.04
9249;BME280;4660;41.768;26.198;2023-10-19T12:36:56;100769.66;;;23.19;82.54
9249;BME280;4660;41.768;26.198;2023-10-19T12:39:24;100752.47;;;23.05;83.73
9249;BME280;4660;41.768;26.198;2023-10-19T12:42:10;100748.31;;;22.96;83.71
9249;BME280;4660;41.768;26.198;2023-10-19T12:44:36;100750.88;;;22.91;85.47
9249;BME280;4660;41.768;26.198;2023-10-19T12:47:08;100752.78;;;22.84;84.08
9249;BME280;4660;41.768;26.198;2023-10-19T12:49:41;100738.09;;;22.71;83.94
9249;BME280;4660;41.768;26.198;2023-10-19T12:52:08;100743.34;;;22.79;83.63
9249;BME280;4660;41.768;26.198;2023-10-19T12:54:34;100730.03;;;22.76;83.50
9249;BME280;4660;41.768;26.198;2023-10-19T12:57:02;100728.97;;;22.77;85.02
9249;BME280;4660;41.768;26.198;2023-10-19T12:59:29;100707.00;;;22.52;84.85
9249;BME280;4660;41.768;26.198;2023-10-19T13:02:08;100721.09;;;22.56;86.67
9249;BME280;4660;41.768;26.198;2023-10-19T13:04:40;100726.56;;;22.56;85.07
9249;BME280;4660;41.768;26.198;2023-10-19T13:07:08;100731.88;;;22.58;84.48
9249;BME280;4660;41.768;26.198;2023-10-19T13:09:36;100729.50;;;22.61;85.51
9249;BME280;4660;41.768;26.198;2023-10-19T13:12:02;100704.06;;;22.47;84.45
9249;BME280;4660;41.768;26.198;2023-10-19T13:14:27;100725.06;;;22.67;83.83
9249;BME280;4660;41.768;26.198;2023-10-19T13:16:56;100724.47;;;22.58;82.92
9249;BME280;4660;41.768;26.198;2023-10-19T13:19:21;100711.09;;;22.68;83.50
9249;BME280;4660;41.768;26.198;2023-10-19T13:21:51;100696.78;;;22.66;85.44